sensor_id;sensor_type;location;lat;lon;timestamp;P1;durP1;ratioP1;P2;durP2;ratioP2
43325;SDS011;28920;59.862;30.636;2023-03-23T00:01:12;12.57;;;7.85;;
43325;SDS011;28920;59.862;30.636;2023-03-23T00:03:46;12.35;;;7.85;;
43325;SDS011;28920;59.862;30.636;2023-03-23T00:06:13;14.05;;;8.40;;
43325;SDS011;28920;59.862;30.636;2023-03-23T00:08:43;17.60;;;7.25;;
43325;SDS011;28920;59.862;30.636;2023-03-23T00:11:12;12.57;;;7.40;;
43325;SDS011;28920;59.862;30.636;2023-03-23T00:13:41;14.63;;;7.32;;
43325;SDS011;28920;59.862;30.636;2023-03-23T00:16:09;12.00;;;7.53;;
43325;SDS011;28920;59.862;30.636;2023-03-23T00:18:44;12.07;;;7.18;;
43325;SDS011;28920;59.862;30.636;2023-03-23T00:21:12;12.70;;;8.30;;
43325;SDS011;28920;59.862;30.636;2023-03-23T00:23:40;10.88;;;7.07;;
43325;SDS011;28920;59.862;30.636;2023-03-23T00:26:11;9.60;;;6.78;;
43325;SDS011;28920;59.862;30.636;2023-03-23T00:28:39;14.13;;;8.10;;
43325;SDS011;28920;59.862;30.636;2023-03-23T00:31:07;11.80;;;7.07;;
43325;SDS011;28920;59.862;30.636;2023-03-23T00:33:38;10.80;;;6.37;;
43325;SDS011;28920;59.862;30.636;2023-03-23T00:36:09;14.18;;;7.03;;
43325;SDS011;28920;59.862;30.636;2023-03-23T00:38:37;11.23;;;7.18;;
43325;SDS011;28920;59.862;30.636;2023-03-23T00:41:06;11.68;;;7.32;;
43325;SDS011;28920;59.862;30.636;2023-03-23T00:43:33;11.60;;;6.50;;
43325;SDS011;28920;59.862;30.636;2023-03-23T00:46:03;10.50;;;6.95;;
43325;SDS011;28920;59.862;30.636;2023-03-23T00:48:35;12.85;;;7.78;;
43325;SDS011;28920;59.862;30.636;2023-03-23T00:51:06;13.38;;;8.15;;
43325;SDS011;28920;59.862;30.636;2023-03-23T00:53:37;11.13;;;7.13;;
43325;SDS011;28920;59.862;30.636;2023-03-23T00:56:05;12.35;;;7.80;;
43325;SDS011;28920;59.862;30.636;2023-03-23T00:58:34;15.68;;;9.00;;
43325;SDS011;28920;59.862;30.636;2023-03-23T01:01:01;12.95;;;7.32;;
43325;SDS011;28920;59.862;30.636;2023-03-23T01:03:29;13.00;;;7.37;;
43325;SDS011;28920;59.862;30.636;2023-03-23T01:06:03;14.15;;;8.85;;
43325;SDS011;28920;59.862;30.636;2023-03-23T01:08:32;11.85;;;7.65;;
43325;SDS011;28920;59.862;30.636;2023-03-23T01:11:03;11.40;;;7.85;;
43325;SDS011;28920;59.862;30.636;2023-03-23T01:13:32;12.02;;;7.55;;
43325;SDS011;28920;59.862;30.636;2023-03-23T01:15:59;11.48;;;7.57;;
43325;SDS011;28920;59.862;30.636;2023-03-23T01:18:27;15.30;;;9.10;;
43325;SDS011;28920;59.862;30.636;2023-03-23T01:20:54;15.73;;;8.75;;
43325;SDS011;28920;59.862;30.636;2023-03-23T01:23:22;15.00;;;9.32;;
43325;SDS011;28920;59.862;30.636;2023-03-23T01:25:50;14.70;;;9.25;;
43325;SDS011;28920;59.862;30.636;2023-03-23T01:28:20;15.68;;;9.43;;
43325;SDS011;28920;59.862;30.636;2023-03-23T01:30:47;16.58;;;9.70;;
43325;SDS011;28920;59.862;30.636;2023-03-23T01:33:14;16.10;;;10.10;;
43325;SDS011;28920;59.862;30.636;2023-03-23T01:35:43;16.00;;;9.48;;
43325;SDS011;28920;59.862;30.636;2023-03-23T01:38:11;15.85;;;8.40;;
43325;SDS011;28920;59.862;30.636;2023-03-23T01:40:38;17.25;;;9.15;;
43325;SDS011;28920;59.862;30.636;2023-03-23T01:43:08;17.70;;;10.35;;
43325;SDS011;28920;59.862;30.636;2023-03-23T01:45:40;15.20;;;8.73;;
43325;SDS011;28920;59.862;30.636;2023-03-23T01:48:09;16.30;;;9.32;;
43325;SDS011;28920;59.862;30.636;2023-03-23T01:50:43;12.93;;;8.75;;
43325;SDS011;28920;59.862;30.636;2023-03-23T01:53:16;13.60;;;9.02;;
43325;SDS011;28920;59.862;30.636;2023-03-23T01:55:45;15.85;;;9.43;;
43325;SDS011;28920;59.862;30.636;2023-03-23T01:58:17;16.02;;;8.55;;
43325;SDS011;28920;59.862;30.636;2023-03-23T02:00:47;12.73;;;8.82;;
43325;SDS011;28920;59.862;30.636;2023-03-23T02:03:15;14.55;;;9.02;;
43325;SDS011;28920;59.862;30.636;2023-03-23T02:05:44;13.35;;;9.40;;
43325;SDS011;28920;59.862;30.636;2023-03-23T02:08:13;15.68;;;9.88;;
43325;SDS011;28920;59.862;30.636;2023-03-23T02:10:42;15.70;;;9.57;;
43325;SDS011;28920;59.862;30.636;2023-03-23T02:13:09;16.02;;;9.63;;
43325;SDS011;28920;59.862;30.636;2023-03-23T02:15:51;15.57;;;9.98;;
43325;SDS011;28920;59.862;30.636;2023-03-23T02:18:31;15.32;;;9.45;;
43325;SDS011;28920;59.862;30.636;2023-03-23T02:21:13;13.73;;;9.23;;
43325;SDS011;28920;59.862;30.636;2023-03-23T02:24:16;14.20;;;9.23;;
43325;SDS011;28920;59.862;30.636;2023-03-23T02:27:09;14.60;;;8.93;;
43325;SDS011;28920;59.862;30.636;2023-03-23T02:32:48;13.73;;;9.02;;
43325;SDS011;28920;59.862;30.636;2023-03-23T02:35:35;15.50;;;8.68;;
43325;SDS011;28920;59.862;30.636;2023-03-23T02:38:06;14.68;;;8.88;;
43325;SDS011;28920;59.862;30.636;2023-03-23T02:40:39;12.88;;;8.15;;
43325;SDS011;28920;59.862;30.636;2023-03-23T02:43:09;15.38;;;9.18;;
43325;SDS011;28920;59.862;30.636;2023-03-23T02:45:38;16.33;;;9.68;;
43325;SDS011;28920;59.862;30.636;2023-03-23T02:48:10;14.00;;;9.35;;
43325;SDS011;28920;59.862;30.636;2023-03-23T02:50:42;18.83;;;9.15;;
43325;SDS011;28920;59.862;30.636;2023-03-23T02:53:12;13.98;;;8.70;;
43325;SDS011;28920;59.862;30.636;2023-03-23T02:55:43;15.48;;;9.60;;
43325;SDS011;28920;59.862;30.636;2023-03-23T02:58:12;15.93;;;9.65;;
43325;SDS011;28920;59.862;30.636;2023-03-23T03:00:39;13.82;;;9.40;;
43325;SDS011;28920;59.862;30.636;2023-03-23T03:03:09;16.15;;;9.20;;
43325;SDS011;28920;59.862;30.636;2023-03-23T03:05:42;20.65;;;10.00;;
43325;SDS011;28920;59.862;30.636;2023-03-23T03:08:17;16.42;;;9.40;;
43325;SDS011;28920;59.862;30.636;2023-03-23T03:10:49;16.77;;;9.60;;
43325;SDS011;28920;59.862;30.636;2023-03-23T03:13:23;16.08;;;8.85;;
43325;SDS011;28920;59.862;30.636;2023-03-23T03:15:59;15.50;;;8.52;;
43325;SDS011;28920;59.862;30.636;2023-03-23T03:18:34;13.02;;;8.35;;
43325;SDS011;28920;59.862;30.636;2023-03-23T03:21:11;13.60;;;9.10;;
43325;SDS011;28920;59.862;30.636;2023-03-23T03:23:40;14.32;;;9.07;;
43325;SDS011;28920;59.862;30.636;2023-03-23T03:26:11;16.87;;;9.00;;
43325;SDS011;28920;59.862;30.636;2023-03-23T03:28:43;11.95;;;8.30;;
43325;SDS011;28920;59.862;30.636;2023-03-23T03:31:14;13.82;;;8.50;;
43325;SDS011;28920;59.862;30.636;2023-03-23T03:33:44;13.10;;;9.10;;
43325;SDS011;28920;59.862;30.636;2023-03-23T03:36:17;16.15;;;8.60;;
43325;SDS011;28920;59.862;30.636;2023-03-23T03:38:47;12.40;;;7.43;;
43325;SDS011;28920;59.862;30.636;2023-03-23T03:41:16;14.07;;;8.70;;
43325;SDS011;28920;59.862;30.636;2023-03-23T03:43:45;17.05;;;8.95;;
43325;SDS011;28920;59.862;30.636;2023-03-23T03:46:13;13.40;;;8.48;;
43325;SDS011;28920;59.862;30.636;2023-03-23T03:48:40;18.00;;;9.05;;
43325;SDS011;28920;59.862;30.636;2023-03-23T03:51:08;14.57;;;8.00;;
43325;SDS011;28920;59.862;30.636;2023-03-23T03:53:35;15.38;;;8.57;;
43325;SDS011;28920;59.862;30.636;2023-03-23T03:56:03;15.70;;;8.10;;
43325;SDS011;28920;59.862;30.636;2023-03-23T03:58:32;12.82;;;8.93;;
43325;SDS011;28920;59.862;30.636;2023-03-23T04:01:03;12.13;;;8.40;;
43325;SDS011;28920;59.862;30.636;2023-03-23T04:03:31;12.88;;;8.20;;
43325;SDS011;28920;59.862;30.636;2023-03-23T04:05:59;13.93;;;8.43;;
43325;SDS011;28920;59.862;30.636;2023-03-23T04:08:27;12.32;;;8.27;;
43325;SDS011;28920;59.862;30.636;2023-03-23T04:10:54;21.08;;;10.32;;
43325;SDS011;28920;59.862;30.636;2023-03-23T04:13:22;14.65;;;8.65;;
43325;SDS011;28920;59.862;30.636;2023-03-23T04:15:53;12.02;;;7.87;;
43325;SDS011;28920;59.862;30.636;2023-03-23T04:18:20;9.77;;;6.78;;
43325;SDS011;28920;59.862;30.636;2023-03-23T04:20:48;14.20;;;8.43;;
43325;SDS011;28920;59.862;30.636;2023-03-23T04:23:17;13.98;;;8.60;;
43325;SDS011;28920;59.862;30.636;2023-03-23T04:25:47;13.65;;;8.80;;
43325;SDS011;28920;59.862;30.636;2023-03-23T04:28:15;17.02;;;9.48;;
43325;SDS011;28920;59.862;30.636;2023-03-23T04:30:47;13.43;;;8.75;;
43325;SDS011;28920;59.862;30.636;2023-03-23T04:33:15;12.63;;;8.10;;
43325;SDS011;28920;59.862;30.636;2023-03-23T04:35:43;17.45;;;9.02;;
43325;SDS011;28920;59.862;30.636;2023-03-23T04:38:12;12.55;;;8.88;;
43325;SDS011;28920;59.862;30.636;2023-03-23T04:40:42;14.48;;;8.50;;
43325;SDS011;28920;59.862;30.636;2023-03-23T04:43:12;13.02;;;8.40;;
43325;SDS011;28920;59.862;30.636;2023-03-23T04:45:43;12.07;;;7.60;;
43325;SDS011;28920;59.862;30.636;2023-03-23T04:48:12;14.93;;;8.80;;
43325;SDS011;28920;59.862;30.636;2023-03-23T04:50:40;15.68;;;8.40;;
43325;SDS011;28920;59.862;30.636;2023-03-23T04:53:09;13.93;;;7.90;;
43325;SDS011;28920;59.862;30.636;2023-03-23T04:55:37;13.88;;;8.43;;
43325;SDS011;28920;59.862;30.636;2023-03-23T04:58:05;11.23;;;7.43;;
43325;SDS011;28920;59.862;30.636;2023-03-23T05:00:35;12.10;;;7.85;;
43325;SDS011;28920;59.862;30.636;2023-03-23T05:03:03;12.43;;;7.47;;
43325;SDS011;28920;59.862;30.636;2023-03-23T05:05:31;13.52;;;8.52;;
43325;SDS011;28920;59.862;30.636;2023-03-23T05:08:01;14.63;;;7.75;;
43325;SDS011;28920;59.862;30.636;2023-03-23T05:10:29;11.75;;;7.10;;
43325;SDS011;28920;59.862;30.636;2023-03-23T05:12:59;14.05;;;8.98;;
43325;SDS011;28920;59.862;30.636;2023-03-23T05:15:26;13.38;;;7.12;;
43325;SDS011;28920;59.862;30.636;2023-03-23T05:17:55;15.43;;;8.13;;
43325;SDS011;28920;59.862;30.636;2023-03-23T05:20:22;13.35;;;6.95;;
43325;SDS011;28920;59.862;30.636;2023-03-23T05:22:50;12.10;;;7.82;;
43325;SDS011;28920;59.862;30.636;2023-03-23T05:25:19;12.98;;;7.62;;
43325;SDS011;28920;59.862;30.636;2023-03-23T05:27:47;11.57;;;6.18;;
43325;SDS011;28920;59.862;30.636;2023-03-23T05:30:19;12.75;;;8.05;;
43325;SDS011;28920;59.862;30.636;2023-03-23T05:32:47;13.40;;;7.15;;
43325;SDS011;28920;59.862;30.636;2023-03-23T05:35:18;12.40;;;7.70;;
43325;SDS011;28920;59.862;30.636;2023-03-23T05:37:47;11.38;;;6.87;;
43325;SDS011;28920;59.862;30.636;2023-03-23T05:40:14;13.62;;;7.55;;
43325;SDS011;28920;59.862;30.636;2023-03-23T05:42:43;11.82;;;7.32;;
43325;SDS011;28920;59.862;30.636;2023-03-23T05:45:12;12.18;;;6.25;;
43325;SDS011;28920;59.862;30.636;2023-03-23T05:47:40;11.63;;;7.55;;
43325;SDS011;28920;59.862;30.636;2023-03-23T05:50:08;15.05;;;7.75;;
43325;SDS011;28920;59.862;30.636;2023-03-23T05:52:37;11.63;;;6.72;;
43325;SDS011;28920;59.862;30.636;2023-03-23T05:55:07;13.73;;;7.82;;
43325;SDS011;28920;59.862;30.636;2023-03-23T05:57:35;13.15;;;7.75;;
43325;SDS011;28920;59.862;30.636;2023-03-23T06:00:05;14.93;;;7.05;;
43325;SDS011;28920;59.862;30.636;2023-03-23T06:02:47;14.07;;;7.65;;
43325;SDS011;28920;59.862;30.636;2023-03-23T06:05:18;12.13;;;7.30;;
43325;SDS011;28920;59.862;30.636;2023-03-23T06:07:47;11.55;;;7.28;;
43325;SDS011;28920;59.862;30.636;2023-03-23T06:10:14;15.20;;;9.75;;
43325;SDS011;28920;59.862;30.636;2023-03-23T06:12:42;13.77;;;7.45;;
43325;SDS011;28920;59.862;30.636;2023-03-23T06:15:11;19.75;;;9.20;;
43325;SDS011;28920;59.862;30.636;2023-03-23T06:17:41;15.93;;;8.38;;
43325;SDS011;28920;59.862;30.636;2023-03-23T06:20:08;13.90;;;7.60;;
43325;SDS011;28920;59.862;30.636;2023-03-23T06:22:37;17.75;;;10.23;;
43325;SDS011;28920;59.862;30.636;2023-03-23T06:25:07;12.55;;;7.93;;
43325;SDS011;28920;59.862;30.636;2023-03-23T06:27:37;11.05;;;7.30;;
43325;SDS011;28920;59.862;30.636;2023-03-23T06:30:06;11.88;;;8.05;;
43325;SDS011;28920;59.862;30.636;2023-03-23T06:32:34;12.10;;;8.27;;
43325;SDS011;28920;59.862;30.636;2023-03-23T06:35:02;12.43;;;7.62;;
43325;SDS011;28920;59.862;30.636;2023-03-23T06:37:32;12.02;;;7.60;;
43325;SDS011;28920;59.862;30.636;2023-03-23T06:39:59;14.07;;;7.90;;
43325;SDS011;28920;59.862;30.636;2023-03-23T06:42:29;14.32;;;7.35;;
43325;SDS011;28920;59.862;30.636;2023-03-23T06:45:00;13.32;;;7.93;;
43325;SDS011;28920;59.862;30.636;2023-03-23T06:47:29;12.77;;;8.32;;
43325;SDS011;28920;59.862;30.636;2023-03-23T06:49:57;12.50;;;8.52;;
43325;SDS011;28920;59.862;30.636;2023-03-23T06:52:24;12.75;;;8.48;;
43325;SDS011;28920;59.862;30.636;2023-03-23T06:54:53;10.57;;;7.07;;
43325;SDS011;28920;59.862;30.636;2023-03-23T06:57:21;13.07;;;7.75;;
43325;SDS011;28920;59.862;30.636;2023-03-23T06:59:49;10.80;;;7.62;;
43325;SDS011;28920;59.862;30.636;2023-03-23T07:02:16;15.52;;;7.93;;
43325;SDS011;28920;59.862;30.636;2023-03-23T07:04:44;14.95;;;7.60;;
43325;SDS011;28920;59.862;30.636;2023-03-23T07:07:12;13.45;;;8.00;;
43325;SDS011;28920;59.862;30.636;2023-03-23T07:09:41;14.68;;;8.73;;
43325;SDS011;28920;59.862;30.636;2023-03-23T07:12:09;11.70;;;7.70;;
43325;SDS011;28920;59.862;30.636;2023-03-23T07:14:36;16.05;;;7.90;;
43325;SDS011;28920;59.862;30.636;2023-03-23T07:17:04;13.45;;;8.48;;
43325;SDS011;28920;59.862;30.636;2023-03-23T07:19:34;12.37;;;7.28;;
43325;SDS011;28920;59.862;30.636;2023-03-23T07:22:03;14.77;;;8.23;;
43325;SDS011;28920;59.862;30.636;2023-03-23T07:24:31;15.13;;;7.32;;
43325;SDS011;28920;59.862;30.636;2023-03-23T07:27:00;12.65;;;8.07;;
43325;SDS011;28920;59.862;30.636;2023-03-23T07:29:28;12.02;;;7.37;;
43325;SDS011;28920;59.862;30.636;2023-03-23T07:31:55;11.32;;;7.47;;
43325;SDS011;28920;59.862;30.636;2023-03-23T07:34:23;10.05;;;6.62;;
43325;SDS011;28920;59.862;30.636;2023-03-23T07:36:52;9.35;;;5.80;;
43325;SDS011;28920;59.862;30.636;2023-03-23T07:39:20;8.57;;;5.60;;
43325;SDS011;28920;59.862;30.636;2023-03-23T07:41:51;9.05;;;6.30;;
43325;SDS011;28920;59.862;30.636;2023-03-23T07:44:19;10.30;;;6.12;;
43325;SDS011;28920;59.862;30.636;2023-03-23T07:46:50;7.62;;;5.28;;
43325;SDS011;28920;59.862;30.636;2023-03-23T07:49:18;7.80;;;5.22;;
43325;SDS011;28920;59.862;30.636;2023-03-23T07:51:46;7.97;;;4.80;;
43325;SDS011;28920;59.862;30.636;2023-03-23T07:54:14;5.97;;;4.65;;
43325;SDS011;28920;59.862;30.636;2023-03-23T07:56:43;6.45;;;4.28;;
43325;SDS011;28920;59.862;30.636;2023-03-23T07:59:11;6.18;;;4.68;;
43325;SDS011;28920;59.862;30.636;2023-03-23T08:01:39;6.78;;;4.28;;
43325;SDS011;28920;59.862;30.636;2023-03-23T08:04:08;5.22;;;4.12;;
43325;SDS011;28920;59.862;30.636;2023-03-23T08:06:36;5.18;;;3.60;;
43325;SDS011;28920;59.862;30.636;2023-03-23T08:09:06;5.15;;;3.80;;
43325;SDS011;28920;59.862;30.636;2023-03-23T08:11:36;4.93;;;3.23;;
43325;SDS011;28920;59.862;30.636;2023-03-23T08:14:05;6.12;;;3.33;;
43325;SDS011;28920;59.862;30.636;2023-03-23T08:16:33;5.65;;;3.20;;
43325;SDS011;28920;59.862;30.636;2023-03-23T08:19:02;4.78;;;3.50;;
43325;SDS011;28920;59.862;30.636;2023-03-23T08:21:31;5.00;;;3.50;;
43325;SDS011;28920;59.862;30.636;2023-03-23T08:23:59;4.97;;;3.22;;
43325;SDS011;28920;59.862;30.636;2023-03-23T08:26:28;5.35;;;4.00;;
43325;SDS011;28920;59.862;30.636;2023-03-23T08:28:56;4.68;;;3.28;;
43325;SDS011;28920;59.862;30.636;2023-03-23T08:31:25;4.10;;;3.08;;
43325;SDS011;28920;59.862;30.636;2023-03-23T08:33:53;4.22;;;2.70;;
43325;SDS011;28920;59.862;30.636;2023-03-23T08:36:22;4.57;;;3.00;;
43325;SDS011;28920;59.862;30.636;2023-03-23T08:38:50;3.33;;;2.45;;
43325;SDS011;28920;59.862;30.636;2023-03-23T08:41:19;6.32;;;2.95;;
43325;SDS011;28920;59.862;30.636;2023-03-23T08:43:48;6.22;;;4.25;;
43325;SDS011;28920;59.862;30.636;2023-03-23T08:46:16;4.05;;;2.87;;
43325;SDS011;28920;59.862;30.636;2023-03-23T08:48:45;4.37;;;3.05;;
43325;SDS011;28920;59.862;30.636;2023-03-23T08:51:19;5.18;;;2.90;;
43325;SDS011;28920;59.862;30.636;2023-03-23T08:53:48;4.20;;;2.72;;
43325;SDS011;28920;59.862;30.636;2023-03-23T08:56:16;4.00;;;2.78;;
43325;SDS011;28920;59.862;30.636;2023-03-23T08:58:43;3.67;;;2.60;;
43325;SDS011;28920;59.862;30.636;2023-03-23T09:01:12;4.78;;;2.45;;
43325;SDS011;28920;59.862;30.636;2023-03-23T09:03:40;3.60;;;2.60;;
43325;SDS011;28920;59.862;30.636;2023-03-23T09:06:11;4.20;;;2.80;;
43325;SDS011;28920;59.862;30.636;2023-03-23T09:08:42;3.60;;;2.53;;
43325;SDS011;28920;59.862;30.636;2023-03-23T09:11:09;4.03;;;2.80;;
43325;SDS011;28920;59.862;30.636;2023-03-23T09:13:37;4.07;;;2.47;;
43325;SDS011;28920;59.862;30.636;2023-03-23T09:16:07;5.72;;;2.10;;
43325;SDS011;28920;59.862;30.636;2023-03-23T09:18:35;3.55;;;2.40;;
43325;SDS011;28920;59.862;30.636;2023-03-23T09:21:02;3.92;;;2.22;;
43325;SDS011;28920;59.862;30.636;2023-03-23T09:23:30;4.43;;;2.35;;
43325;SDS011;28920;59.862;30.636;2023-03-23T09:25:59;4.97;;;2.80;;
43325;SDS011;28920;59.862;30.636;2023-03-23T09:28:27;3.47;;;2.20;;
43325;SDS011;28920;59.862;30.636;2023-03-23T09:30:55;3.95;;;2.10;;
43325;SDS011;28920;59.862;30.636;2023-03-23T09:33:23;3.42;;;1.85;;
43325;SDS011;28920;59.862;30.636;2023-03-23T09:35:52;3.30;;;2.15;;
43325;SDS011;28920;59.862;30.636;2023-03-23T09:38:20;2.55;;;1.65;;
43325;SDS011;28920;59.862;30.636;2023-03-23T09:40:48;3.00;;;2.00;;
43325;SDS011;28920;59.862;30.636;2023-03-23T09:43:23;2.45;;;1.67;;
43325;SDS011;28920;59.862;30.636;2023-03-23T09:46:00;2.33;;;1.60;;
43325;SDS011;28920;59.862;30.636;2023-03-23T09:48:43;2.72;;;2.00;;
43325;SDS011;28920;59.862;30.636;2023-03-23T09:51:21;3.87;;;1.80;;
43325;SDS011;28920;59.862;30.636;2023-03-23T09:53:57;6.47;;;2.00;;
43325;SDS011;28920;59.862;30.636;2023-03-23T09:56:30;2.67;;;1.90;;
43325;SDS011;28920;59.862;30.636;2023-03-23T09:59:00;5.55;;;2.05;;
43325;SDS011;28920;59.862;30.636;2023-03-23T10:01:31;2.75;;;1.80;;
43325;SDS011;28920;59.862;30.636;2023-03-23T10:04:03;3.00;;;1.90;;
43325;SDS011;28920;59.862;30.636;2023-03-23T10:06:36;3.95;;;1.90;;
43325;SDS011;28920;59.862;30.636;2023-03-23T10:09:04;4.00;;;1.92;;
43325;SDS011;28920;59.862;30.636;2023-03-23T10:11:35;3.12;;;1.80;;
43325;SDS011;28920;59.862;30.636;2023-03-23T10:14:14;4.47;;;2.22;;
43325;SDS011;28920;59.862;30.636;2023-03-23T10:16:49;2.72;;;1.87;;
43325;SDS011;28920;59.862;30.636;2023-03-23T10:19:27;3.17;;;2.25;;
43325;SDS011;28920;59.862;30.636;2023-03-23T10:22:01;3.67;;;1.77;;
43325;SDS011;28920;59.862;30.636;2023-03-23T10:24:34;3.85;;;1.45;;
43325;SDS011;28920;59.862;30.636;2023-03-23T10:27:06;1.73;;;1.50;;
43325;SDS011;28920;59.862;30.636;2023-03-23T10:29:42;3.15;;;1.52;;
43325;SDS011;28920;59.862;30.636;2023-03-23T10:32:14;1.87;;;1.20;;
43325;SDS011;28920;59.862;30.636;2023-03-23T10:34:44;2.70;;;1.97;;
43325;SDS011;28920;59.862;30.636;2023-03-23T10:37:18;3.28;;;1.70;;
43325;SDS011;28920;59.862;30.636;2023-03-23T10:39:50;2.53;;;1.73;;
43325;SDS011;28920;59.862;30.636;2023-03-23T10:42:24;4.75;;;1.90;;
43325;SDS011;28920;59.862;30.636;2023-03-23T10:44:53;3.00;;;1.85;;
43325;SDS011;28920;59.862;30.636;2023-03-23T10:47:22;3.40;;;1.50;;
43325;SDS011;28920;59.862;30.636;2023-03-23T10:49:50;2.92;;;1.70;;
43325;SDS011;28920;59.862;30.636;2023-03-23T10:52:26;3.95;;;2.72;;
43325;SDS011;28920;59.862;30.636;2023-03-23T10:55:01;3.40;;;1.60;;
43325;SDS011;28920;59.862;30.636;2023-03-23T10:57:32;2.30;;;1.80;;
43325;SDS011;28920;59.862;30.636;2023-03-23T11:00:02;4.72;;;1.92;;
43325;SDS011;28920;59.862;30.636;2023-03-23T11:02:36;4.07;;;2.72;;
43325;SDS011;28920;59.862;30.636;2023-03-23T11:05:07;4.53;;;2.22;;
43325;SDS011;28920;59.862;30.636;2023-03-23T11:07:49;2.55;;;1.90;;
43325;SDS011;28920;59.862;30.636;2023-03-23T11:10:21;3.12;;;1.90;;
43325;SDS011;28920;59.862;30.636;2023-03-23T11:12:50;6.00;;;2.28;;
43325;SDS011;28920;59.862;30.636;2023-03-23T11:15:29;4.43;;;1.92;;
43325;SDS011;28920;59.862;30.636;2023-03-23T11:18:00;3.60;;;2.03;;
43325;SDS011;28920;59.862;30.636;2023-03-23T11:20:32;2.97;;;2.05;;
43325;SDS011;28920;59.862;30.636;2023-03-23T11:23:08;3.85;;;1.75;;
43325;SDS011;28920;59.862;30.636;2023-03-23T11:25:50;4.37;;;1.83;;
43325;SDS011;28920;59.862;30.636;2023-03-23T11:28:21;2.80;;;1.70;;
43325;SDS011;28920;59.862;30.636;2023-03-23T11:30:54;5.35;;;1.83;;
43325;SDS011;28920;59.862;30.636;2023-03-23T11:33:24;3.25;;;2.15;;
43325;SDS011;28920;59.862;30.636;2023-03-23T11:35:52;3.97;;;2.53;;
43325;SDS011;28920;59.862;30.636;2023-03-23T11:38:22;3.65;;;2.10;;
43325;SDS011;28920;59.862;30.636;2023-03-23T11:40:54;6.45;;;2.37;;
43325;SDS011;28920;59.862;30.636;2023-03-23T11:43:22;4.82;;;2.33;;
43325;SDS011;28920;59.862;30.636;2023-03-23T11:45:53;4.55;;;2.22;;
43325;SDS011;28920;59.862;30.636;2023-03-23T11:48:30;5.28;;;2.60;;
43325;SDS011;28920;59.862;30.636;2023-03-23T11:51:05;4.82;;;1.98;;
43325;SDS011;28920;59.862;30.636;2023-03-23T11:53:41;4.75;;;2.03;;
43325;SDS011;28920;59.862;30.636;2023-03-23T11:56:15;5.60;;;2.05;;
43325;SDS011;28920;59.862;30.636;2023-03-23T11:58:52;2.15;;;1.60;;
43325;SDS011;28920;59.862;30.636;2023-03-23T12:01:24;2.58;;;1.58;;
43325;SDS011;28920;59.862;30.636;2023-03-23T12:04:03;3.22;;;2.17;;
43325;SDS011;28920;59.862;30.636;2023-03-23T12:06:48;2.33;;;1.83;;
43325;SDS011;28920;59.862;30.636;2023-03-23T12:09:25;4.32;;;1.73;;
43325;SDS011;28920;59.862;30.636;2023-03-23T12:12:05;3.62;;;2.00;;
43325;SDS011;28920;59.862;30.636;2023-03-23T12:14:44;3.60;;;1.58;;
43325;SDS011;28920;59.862;30.636;2023-03-23T12:17:25;2.08;;;1.60;;
43325;SDS011;28920;59.862;30.636;2023-03-23T12:20:01;4.62;;;2.10;;
43325;SDS011;28920;59.862;30.636;2023-03-23T12:22:45;3.25;;;1.30;;
43325;SDS011;28920;59.862;30.636;2023-03-23T12:25:38;3.22;;;1.37;;
43325;SDS011;28920;59.862;30.636;2023-03-23T12:28:22;3.12;;;1.90;;
43325;SDS011;28920;59.862;30.636;2023-03-23T12:31:01;3.47;;;1.50;;
43325;SDS011;28920;59.862;30.636;2023-03-23T12:33:38;13.68;;;2.35;;
43325;SDS011;28920;59.862;30.636;2023-03-23T12:36:17;2.90;;;1.75;;
43325;SDS011;28920;59.862;30.636;2023-03-23T12:38:54;2.12;;;1.73;;
43325;SDS011;28920;59.862;30.636;2023-03-23T12:41:40;2.78;;;1.33;;
43325;SDS011;28920;59.862;30.636;2023-03-23T12:44:14;3.80;;;1.67;;
43325;SDS011;28920;59.862;30.636;2023-03-23T12:47:05;2.03;;;1.27;;
43325;SDS011;28920;59.862;30.636;2023-03-23T12:49:41;4.05;;;1.48;;
43325;SDS011;28920;59.862;30.636;2023-03-23T12:52:14;4.03;;;1.95;;
43325;SDS011;28920;59.862;30.636;2023-03-23T12:54:47;2.15;;;1.30;;
43325;SDS011;28920;59.862;30.636;2023-03-23T12:57:22;2.47;;;1.73;;
43325;SDS011;28920;59.862;30.636;2023-03-23T12:59:59;3.20;;;1.70;;
43325;SDS011;28920;59.862;30.636;2023-03-23T13:02:39;4.50;;;1.53;;
43325;SDS011;28920;59.862;30.636;2023-03-23T13:05:09;3.20;;;1.30;;
43325;SDS011;28920;59.862;30.636;2023-03-23T13:07:42;3.12;;;1.50;;
43325;SDS011;28920;59.862;30.636;2023-03-23T13:10:15;2.45;;;1.80;;
43325;SDS011;28920;59.862;30.636;2023-03-23T13:12:49;4.87;;;2.00;;
43325;SDS011;28920;59.862;30.636;2023-03-23T13:15:22;4.30;;;1.55;;
43325;SDS011;28920;59.862;30.636;2023-03-23T13:18:00;4.50;;;1.62;;
43325;SDS011;28920;59.862;30.636;2023-03-23T13:20:40;3.85;;;1.60;;
43325;SDS011;28920;59.862;30.636;2023-03-23T13:23:15;2.92;;;1.70;;
43325;SDS011;28920;59.862;30.636;2023-03-23T13:25:48;2.67;;;1.40;;
43325;SDS011;28920;59.862;30.636;2023-03-23T13:28:19;6.28;;;1.60;;
43325;SDS011;28920;59.862;30.636;2023-03-23T13:30:58;3.20;;;1.70;;
43325;SDS011;28920;59.862;30.636;2023-03-23T13:33:34;5.55;;;1.73;;
43325;SDS011;28920;59.862;30.636;2023-03-23T13:36:09;2.40;;;1.40;;
43325;SDS011;28920;59.862;30.636;2023-03-23T13:38:43;3.08;;;1.60;;
43325;SDS011;28920;59.862;30.636;2023-03-23T13:41:13;2.92;;;1.80;;
43325;SDS011;28920;59.862;30.636;2023-03-23T13:43:43;3.22;;;1.95;;
43325;SDS011;28920;59.862;30.636;2023-03-23T13:46:12;3.92;;;1.60;;
43325;SDS011;28920;59.862;30.636;2023-03-23T13:49:03;5.47;;;1.70;;
43325;SDS011;28920;59.862;30.636;2023-03-23T13:51:47;4.90;;;1.85;;
43325;SDS011;28920;59.862;30.636;2023-03-23T13:54:24;3.30;;;1.30;;
43325;SDS011;28920;59.862;30.636;2023-03-23T13:56:56;4.10;;;1.58;;
43325;SDS011;28920;59.862;30.636;2023-03-23T13:59:30;4.95;;;2.33;;
43325;SDS011;28920;59.862;30.636;2023-03-23T14:05:07;3.80;;;1.85;;
43325;SDS011;28920;59.862;30.636;2023-03-23T14:07:50;5.47;;;1.85;;
43325;SDS011;28920;59.862;30.636;2023-03-23T14:10:19;5.35;;;1.77;;
43325;SDS011;28920;59.862;30.636;2023-03-23T14:12:48;5.18;;;1.90;;
43325;SDS011;28920;59.862;30.636;2023-03-23T14:15:20;2.78;;;1.40;;
43325;SDS011;28920;59.862;30.636;2023-03-23T14:17:47;3.37;;;1.77;;
43325;SDS011;28920;59.862;30.636;2023-03-23T14:20:20;3.28;;;1.20;;
43325;SDS011;28920;59.862;30.636;2023-03-23T14:22:55;4.07;;;1.65;;
43325;SDS011;28920;59.862;30.636;2023-03-23T14:25:25;2.87;;;1.67;;
43325;SDS011;28920;59.862;30.636;2023-03-23T14:27:55;3.75;;;1.48;;
43325;SDS011;28920;59.862;30.636;2023-03-23T14:30:24;3.45;;;1.60;;
43325;SDS011;28920;59.862;30.636;2023-03-23T14:32:53;2.70;;;1.50;;
43325;SDS011;28920;59.862;30.636;2023-03-23T14:35:29;4.72;;;1.40;;
43325;SDS011;28920;59.862;30.636;2023-03-23T14:37:58;4.37;;;1.55;;
43325;SDS011;28920;59.862;30.636;2023-03-23T14:40:25;3.08;;;1.35;;
43325;SDS011;28920;59.862;30.636;2023-03-23T14:42:55;4.35;;;1.90;;
43325;SDS011;28920;59.862;30.636;2023-03-23T14:45:24;2.75;;;1.45;;
43325;SDS011;28920;59.862;30.636;2023-03-23T14:47:52;3.83;;;1.52;;
43325;SDS011;28920;59.862;30.636;2023-03-23T14:50:25;5.35;;;1.80;;
43325;SDS011;28920;59.862;30.636;2023-03-23T14:55:27;4.12;;;1.45;;
43325;SDS011;28920;59.862;30.636;2023-03-23T14:58:05;5.68;;;2.10;;
43325;SDS011;28920;59.862;30.636;2023-03-23T15:00:35;5.45;;;1.87;;